createdAt,value
2019-04-16T00:02:52.235Z,71.80
2019-04-16T00:07:12.165Z,73.00
2019-04-16T00:11:24.707Z,73.20
2019-04-16T00:15:26.617Z,73.70
2019-04-16T00:19:28.518Z,73.80
2019-04-16T00:23:33.158Z,73.60
2019-04-16T00:27:35.083Z,74.30
2019-04-16T00:31:37.783Z,74.80
2019-04-16T00:35:39.751Z,74.70
2019-04-16T00:39:41.655Z,74.60
2019-04-16T00:43:44.213Z,74.10
2019-04-16T00:47:47.951Z,74.30
2019-04-16T00:51:49.940Z,75.20
2019-04-16T00:55:51.853Z,75.60
2019-04-16T00:59:56.351Z,75.70
2019-04-16T01:03:57.455Z,76.00
2019-04-16T01:07:59.363Z,76.20
2019-04-16T01:12:01.612Z,76.00
2019-04-16T01:16:04.175Z,76.70
2019-04-16T01:20:11.572Z,76.70
2019-04-16T01:24:12.128Z,75.90
2019-04-16T01:28:24.595Z,77.10
2019-04-16T01:32:28.182Z,77.10
2019-04-16T01:36:36.120Z,77.80
2019-04-16T01:40:43.651Z,78.50
2019-04-16T01:44:45.571Z,78.10
2019-04-16T01:49:09.808Z,78.40
2019-04-16T01:53:21.010Z,78.40
2019-04-16T01:57:23.730Z,78.20
2019-04-16T02:01:25.650Z,79.00
2019-04-16T02:05:27.543Z,79.50
2019-04-16T02:09:34.169Z,79.50
2019-04-16T02:13:33.373Z,79.60
2019-04-16T02:17:35.272Z,79.50
2019-04-16T02:21:39.003Z,79.70
2019-04-16T02:25:41.865Z,79.70
2019-04-16T02:29:43.910Z,80.00
2019-04-16T02:33:45.866Z,80.30
2019-04-16T02:37:47.893Z,80.20
2019-04-16T02:41:57.077Z,80.40
2019-04-16T02:45:58.440Z,80.70
2019-04-16T02:49:58.113Z,81.10
2019-04-16T02:54:13.925Z,81.60
2019-04-16T02:58:33.896Z,81.20
2019-04-16T03:02:32.957Z,80.20
2019-04-16T03:06:34.999Z,82.00
2019-04-16T03:10:36.900Z,81.90
2019-04-16T03:14:38.874Z,82.60
2019-04-16T03:18:46.907Z,82.30
2019-04-16T03:22:46.093Z,82.00
2019-04-16T03:26:50.525Z,81.90
2019-04-16T03:30:51.606Z,82.60
2019-04-16T03:34:54.167Z,82.70
2019-04-16T03:38:56.105Z,82.70
2019-04-16T03:42:59.331Z,82.80
2019-04-16T03:47:01.675Z,82.90
2019-04-16T03:51:04.420Z,82.90
2019-04-16T03:55:06.968Z,83.60
2019-04-16T03:59:11.858Z,83.60
2019-04-16T04:03:12.747Z,83.00
2019-04-16T04:07:14.682Z,83.10
2019-04-16T04:11:16.576Z,83.20
2019-04-16T04:15:18.506Z,83.40
2019-04-16T04:19:20.473Z,84.00
2019-04-16T04:23:22.422Z,83.20
2019-04-16T04:27:24.339Z,83.20
2019-04-16T04:31:26.275Z,83.80
2019-04-16T04:35:28.214Z,84.90
2019-04-16T04:39:30.151Z,84.20
2019-04-16T04:43:32.725Z,84.60
2019-04-16T04:47:34.752Z,84.40
2019-04-16T04:51:42.662Z,84.70
2019-04-16T04:55:40.283Z,84.90
2019-04-16T04:59:42.205Z,85.10
2019-04-16T05:04:02.227Z,85.00
2019-04-16T05:08:04.607Z,85.50
2019-04-16T05:12:08.287Z,85.40
2019-04-16T05:16:10.477Z,85.40
2019-04-16T05:20:15.375Z,85.40
2019-04-16T05:24:16.109Z,85.50
2019-04-16T05:28:18.046Z,85.60
2019-04-16T05:32:20.913Z,85.90
2019-04-16T05:36:22.844Z,85.70
2019-04-16T05:40:27.621Z,85.50
2019-04-16T05:44:33.051Z,85.00
2019-04-16T05:48:32.102Z,85.70
2019-04-16T05:52:52.962Z,85.00
2019-04-16T06:01:10.457Z,83.70
2019-04-16T06:05:13.491Z,84.20
2019-04-16T06:09:15.677Z,83.90
2019-04-16T06:13:26.604Z,83.60
2019-04-16T06:17:48.439Z,80.80
2019-04-16T06:22:03.834Z,80.50
2019-04-16T06:26:07.638Z,78.20
2019-04-16T06:30:17.379Z,76.70
2019-04-16T06:34:32.942Z,73.50
2019-04-16T06:38:51.187Z,70.80
2019-04-16T06:43:02.764Z,68.70
2019-04-16T06:47:10.518Z,69.00
2019-04-16T06:51:17.128Z,65.70
2019-04-16T06:55:36.011Z,65.10
2019-04-16T06:59:43.735Z,66.10
2019-04-16T07:03:47.317Z,64.80
2019-04-16T07:07:50.864Z,64.80
2019-04-16T07:11:55.045Z,63.80
2019-04-16T07:15:57.775Z,63.20
2019-04-16T07:19:59.882Z,61.20
2019-04-16T07:24:01.877Z,62.20
2019-04-16T07:28:05.448Z,59.50
2019-04-16T07:32:17.997Z,61.20
2019-04-16T07:36:30.256Z,59.50
2019-04-16T07:40:50.076Z,59.40
2019-04-16T07:44:56.331Z,58.50
2019-04-16T07:49:16.011Z,58.60
2019-04-16T07:53:22.455Z,57.80
2019-04-16T07:57:24.379Z,56.80
2019-04-16T08:01:26.285Z,57.60
2019-04-16T08:05:28.310Z,55.70
2019-04-16T08:09:33.503Z,55.00
2019-04-16T08:13:35.517Z,54.80
2019-04-16T08:17:37.452Z,55.80
2019-04-16T08:21:40.692Z,55.80
2019-04-16T08:25:44.267Z,54.00
2019-04-16T08:29:46.185Z,52.80
2019-04-16T08:33:48.098Z,51.80
2019-04-16T08:37:50.011Z,51.60
2019-04-16T08:41:53.008Z,51.10
2019-04-16T08:45:55.174Z,49.80
2019-04-16T08:49:57.107Z,48.80
2019-04-16T08:53:59.047Z,46.30
2019-04-16T08:58:05.898Z,45.50
2019-04-16T09:02:05.194Z,45.60
2019-04-16T09:06:07.191Z,43.90
2019-04-16T09:10:18.084Z,43.80
2019-04-16T09:14:21.042Z,43.90
2019-04-16T09:18:22.088Z,42.50
2019-04-16T09:22:24.097Z,42.40
2019-04-16T09:26:30.399Z,41.20
2019-04-16T09:30:40.880Z,41.30
2019-04-16T09:34:51.733Z,41.20
2019-04-16T09:38:55.308Z,41.30
2019-04-16T09:42:57.593Z,40.00
2019-04-16T09:47:00.586Z,41.00
2019-04-16T09:51:02.703Z,39.90
2019-04-16T09:55:05.830Z,39.50
2019-04-16T09:59:11.052Z,37.80
2019-04-16T10:03:14.776Z,38.10
2019-04-16T10:07:16.733Z,38.40
2019-04-16T10:11:19.454Z,37.40
2019-04-16T10:15:21.695Z,36.70
2019-04-16T10:19:23.831Z,35.80
2019-04-16T10:23:27.399Z,35.80
2019-04-16T10:27:32.496Z,34.70
2019-04-16T10:31:34.511Z,34.00
2019-04-16T10:35:36.484Z,31.80
2019-04-16T10:39:42.699Z,31.20
2019-04-16T10:43:46.814Z,32.40
2019-04-16T10:47:50.689Z,30.50
2019-04-16T10:52:09.360Z,31.70
2019-04-16T10:56:28.591Z,31.00
2019-04-16T11:00:34.967Z,30.10
2019-04-16T11:04:54.407Z,30.00
2019-04-16T11:08:56.328Z,29.80
2019-04-16T11:12:58.255Z,30.50
2019-04-16T11:17:00.201Z,30.40
2019-04-16T11:21:02.416Z,30.80
2019-04-16T11:25:05.872Z,30.40
2019-04-16T11:29:07.763Z,31.10
2019-04-16T11:33:09.748Z,27.10
2019-04-16T11:37:11.794Z,28.40
2019-04-16T11:41:13.759Z,28.90
2019-04-16T11:45:16.285Z,29.40
2019-04-16T11:49:18.276Z,27.50
2019-04-16T11:53:30.118Z,26.40
2019-04-16T11:57:33.993Z,26.80
2019-04-16T12:01:52.314Z,26.50
2019-04-16T12:06:27.166Z,27.30
2019-04-16T12:10:16.538Z,26.90
2019-04-16T12:14:42.010Z,27.70
2019-04-16T12:18:53.548Z,28.70
2019-04-16T12:23:12.261Z,27.30
2019-04-16T12:27:14.156Z,25.50
2019-04-16T12:31:17.750Z,25.70
2019-04-16T12:35:21.285Z,26.90
2019-04-16T12:39:24.887Z,24.60
2019-04-16T12:43:26.658Z,25.20
2019-04-16T12:47:36.513Z,25.80
2019-04-16T12:51:55.141Z,24.70
2019-04-16T12:56:05.763Z,25.40
2019-04-16T13:00:07.049Z,25.10
2019-04-16T13:04:13.457Z,23.70
2019-04-16T13:08:15.165Z,24.90
2019-04-16T13:12:32.857Z,24.60
2019-04-16T13:16:54.480Z,25.60
2019-04-16T13:21:05.493Z,25.60
2019-04-16T13:25:22.250Z,24.90
2019-04-16T13:29:28.974Z,24.60
2019-04-16T13:33:27.861Z,23.90
2019-04-16T13:37:33.626Z,24.10
2019-04-16T13:41:33.406Z,24.50
2019-04-16T13:45:36.702Z,25.30
2019-04-16T13:49:42.936Z,24.90
2019-04-16T13:53:52.495Z,25.10
2019-04-16T13:58:02.206Z,23.90
2019-04-16T14:02:17.315Z,25.10
2019-04-16T14:06:18.295Z,23.70
2019-04-16T14:10:20.204Z,23.30
2019-04-16T14:14:23.806Z,23.40
2019-04-16T14:18:25.805Z,23.20
2019-04-16T14:22:27.726Z,23.40
2019-04-16T14:26:29.647Z,23.30
2019-04-16T14:30:33.241Z,22.20
2019-04-16T14:34:37.859Z,23.20
2019-04-16T14:38:41.418Z,21.90
2019-04-16T14:42:43.325Z,22.90
2019-04-16T14:46:45.254Z,23.40
2019-04-16T14:50:47.175Z,23.50
2019-04-16T14:54:50.740Z,23.60
2019-04-16T14:59:06.539Z,23.80
2019-04-16T15:03:26.311Z,24.10
2019-04-16T15:07:29.883Z,23.40
2019-04-16T15:11:51.954Z,22.90
2019-04-16T15:16:08.239Z,22.40
2019-04-16T15:20:16.593Z,23.10
2019-04-16T15:24:20.215Z,23.60
2019-04-16T15:28:26.253Z,23.70
2019-04-16T15:32:39.610Z,23.40
2019-04-16T15:36:50.578Z,23.30
2019-04-16T15:40:54.364Z,23.80
2019-04-16T15:45:02.131Z,22.70
2019-04-16T15:49:07.101Z,23.50
2019-04-16T15:53:16.852Z,23.70
2019-04-16T15:57:23.087Z,24.20
2019-04-16T16:01:29.346Z,24.20
2019-04-16T16:05:36.714Z,24.50
2019-04-16T16:09:41.133Z,24.20
2019-04-16T16:13:42.072Z,24.00
2019-04-16T16:17:44.832Z,24.60
2019-04-16T16:21:46.761Z,26.00
2019-04-16T16:25:48.681Z,25.40
2019-04-16T16:29:50.635Z,25.10
2019-04-16T16:33:52.566Z,26.10
2019-04-16T16:37:54.491Z,26.00
2019-04-16T16:41:56.700Z,26.50
2019-04-16T16:46:03.039Z,27.40
2019-04-16T16:50:07.322Z,26.90
2019-04-16T16:54:11.162Z,27.50
2019-04-16T16:58:32.847Z,28.20
2019-04-16T17:02:37.385Z,28.40
2019-04-16T17:06:39.303Z,28.00
2019-04-16T17:10:42.615Z,29.30
2019-04-16T17:14:45.689Z,29.40
2019-04-16T17:18:47.607Z,29.70
2019-04-16T17:22:49.530Z,30.00
2019-04-16T17:26:51.459Z,30.00
2019-04-16T17:30:53.531Z,31.40
2019-04-16T17:34:55.535Z,31.20
2019-04-16T17:38:57.481Z,32.20
2019-04-16T17:43:12.644Z,31.70
2019-04-16T17:47:31.921Z,32.20
2019-04-16T17:51:24.526Z,33.00
2019-04-16T17:55:28.092Z,33.60
2019-04-16T17:59:34.240Z,33.50
2019-04-16T18:03:38.657Z,35.20
2019-04-16T18:07:57.827Z,35.60
2019-04-16T18:12:13.731Z,36.10
2019-04-16T18:16:16.681Z,37.20
2019-04-16T18:20:18.859Z,37.60
2019-04-16T18:24:23.493Z,37.10
2019-04-16T18:28:25.817Z,37.60
2019-04-16T18:32:38.627Z,38.90
2019-04-16T18:36:55.547Z,39.90
2019-04-16T18:41:08.991Z,40.20
2019-04-16T18:45:22.594Z,41.60
2019-04-16T18:49:26.143Z,42.60
2019-04-16T18:53:28.078Z,43.40
2019-04-16T18:57:30.097Z,44.40
2019-04-16T19:01:33.660Z,45.00
2019-04-16T19:05:35.564Z,45.40
2019-04-16T19:09:37.655Z,45.90
2019-04-16T19:13:39.565Z,46.80
2019-04-16T19:17:41.476Z,47.20
2019-04-16T19:21:43.491Z,47.50
2019-04-16T19:25:45.381Z,48.00
2019-04-16T19:29:47.289Z,48.80
2019-04-16T19:33:49.207Z,48.80
2019-04-16T19:37:51.131Z,49.10
2019-04-16T19:41:57.484Z,50.10
2019-04-16T19:45:56.881Z,50.60
2019-04-16T19:49:58.983Z,51.20
2019-04-16T19:54:01.683Z,51.50
2019-04-16T19:58:03.656Z,51.70
2019-04-16T20:02:05.754Z,52.70
2019-04-16T20:06:07.884Z,53.60
2019-04-16T20:10:10.297Z,53.90
2019-04-16T20:14:12.185Z,54.80
2019-04-16T20:18:14.107Z,55.00
2019-04-16T20:22:16.046Z,55.40
2019-04-16T20:26:17.931Z,56.10
2019-04-16T20:30:24.251Z,56.20
2019-04-16T20:34:24.513Z,56.70
2019-04-16T20:38:29.183Z,57.40
2019-04-16T20:42:30.003Z,57.70
2019-04-16T20:46:31.900Z,58.40
2019-04-16T20:50:33.805Z,58.80
2019-04-16T20:54:36.278Z,60.00
2019-04-16T20:58:38.650Z,60.00
2019-04-16T21:02:40.543Z,60.30
2019-04-16T21:06:42.448Z,60.70
2019-04-16T21:10:44.961Z,62.20
2019-04-16T21:14:46.859Z,62.30
2019-04-16T21:18:48.767Z,62.30
2019-04-16T21:22:50.653Z,63.20
2019-04-16T21:26:52.561Z,63.00
2019-04-16T21:30:56.119Z,63.40
2019-04-16T21:35:00.934Z,63.70
2019-04-16T21:39:10.678Z,64.00
2019-04-16T21:43:13.652Z,64.00
2019-04-16T21:47:15.557Z,64.70
2019-04-16T21:51:19.508Z,65.80
2019-04-16T21:55:21.053Z,66.00
2019-04-16T21:59:22.959Z,66.30
2019-04-16T22:03:26.502Z,67.50
2019-04-16T22:07:28.438Z,67.20
2019-04-16T22:11:30.336Z,67.00
2019-04-16T22:15:32.247Z,67.00
2019-04-16T22:19:34.150Z,67.80
2019-04-16T22:23:36.038Z,67.40
2019-04-16T22:27:39.674Z,67.40
2019-04-16T22:31:41.802Z,67.30
2019-04-16T22:35:44.942Z,67.50
2019-04-16T22:39:51.972Z,67.50
2019-04-16T22:44:04.280Z,67.50
2019-04-16T22:48:06.322Z,67.50
2019-04-16T22:52:08.401Z,68.20
2019-04-16T22:56:10.313Z,68.00
2019-04-16T23:00:14.265Z,68.00
2019-04-16T23:04:17.829Z,67.80
2019-04-16T23:08:19.734Z,68.60
2019-04-16T23:12:24.488Z,69.50
2019-04-16T23:16:25.252Z,69.10
2019-04-16T23:20:29.671Z,68.70
2019-04-16T23:24:32.335Z,70.00
2019-04-16T23:28:34.354Z,70.60
2019-04-16T23:32:37.233Z,71.50
2019-04-16T23:36:39.227Z,71.50
2019-04-16T23:40:43.963Z,71.60
2019-04-16T23:44:54.718Z,72.20
2019-04-16T23:48:58.275Z,72.80
2019-04-16T23:53:04.076Z,72.00
2019-04-16T23:57:07.073Z,71.50
